^^
Your Local Weather - Clay, NY Station Historical Data
Daily Summary for January 30, 2018 Units:  English    Metric   Both
« Previous Day
Next Day »
Daily Weekly Monthly Yearly Custom
  High: Low: Average:
Temperature: 24.4 °F 14.5 °F 19.3 °F
Dew Point: 20.0 °F 11.1 °F 15.4 °F
Humidity: 89% 75% 85%
Wind Speed: 6.0mph 0.0mph 2.6mph
Wind Gust: 10.0mph - -
Wind- - WNW
Pressure: 30.25 in 29.97 in -
Precipitation: 0.00 in    
Historical Graphs
 
 
Tabular Data for January 30, 2018
Time Temperature Dew Point Pressure Wind Wind Speed Wind Gust Humidity Rainfall Rate (Hourly) solar
00:04 24.4 °F 20.0 °F 30.02 in Calm     83% 0.00 in 0 W/m2
00:10 24.2 °F 19.8 °F 30.02 in Calm     83% 0.00 in 0 W/m2
00:16 24.0 °F 19.6 °F 30.01 in Calm     83% 0.00 in 0 W/m2
00:22 23.8 °F 19.4 °F 30.01 in Calm     83% 0.00 in 0 W/m2
00:28 23.7 °F 19.6 °F 30.01 in Calm     84% 0.00 in 0 W/m2
00:34 23.6 °F 19.5 °F 30.01 in Calm     84% 0.00 in 0 W/m2
00:40 23.6 °F 19.8 °F 30.00 in Calm     85% 0.00 in 0 W/m2
00:46 23.5 °F 19.7 °F 30.00 in Calm     85% 0.00 in 0 W/m2
00:52 23.4 °F 19.6 °F 30.00 in Calm     85% 0.00 in 0 W/m2
00:58 23.3 °F 19.5 °F 30.00 in Calm     85% 0.00 in 0 W/m2
01:04 23.3 °F 19.5 °F 29.99 in Calm   1.0 mph 85% 0.00 in 0 W/m2
01:10 23.2 °F 19.4 °F 29.99 in Calm     85% 0.00 in 0 W/m2
01:16 23.2 °F 19.4 °F 29.99 in Calm     85% 0.00 in 0 W/m2
01:22 23.2 °F 19.4 °F 29.98 in Calm     85% 0.00 in 0 W/m2
01:28 23.2 °F 19.4 °F 29.98 in Calm     85% 0.00 in 0 W/m2
01:34 23.2 °F 19.4 °F 29.98 in Calm     85% 0.00 in 0 W/m2
01:40 23.2 °F 19.4 °F 29.98 in Calm     85% 0.00 in 0 W/m2
01:46 23.2 °F 19.4 °F 29.98 in Calm     85% 0.00 in 0 W/m2
01:52 23.1 °F 19.3 °F 29.99 in Calm     85% 0.00 in 0 W/m2
01:58 23.1 °F 19.3 °F 29.99 in Calm   1.0 mph 85% 0.00 in 0 W/m2
02:04 23.1 °F 19.3 °F 29.99 in Calm     85% 0.00 in 0 W/m2
02:10 23.0 °F 19.2 °F 29.99 in Calm     85% 0.00 in 0 W/m2
02:16 23.0 °F 19.2 °F 29.99 in Calm     85% 0.00 in 0 W/m2
02:22 22.9 °F 19.1 °F 29.99 in Calm     85% 0.00 in 0 W/m2
02:28 22.9 °F 19.1 °F 29.99 in Calm     85% 0.00 in 0 W/m2
02:34 22.9 °F 19.1 °F 29.98 in Calm     85% 0.00 in 0 W/m2
02:40 22.9 °F 19.1 °F 29.98 in Calm     85% 0.00 in 0 W/m2
02:46 22.9 °F 19.1 °F 29.98 in Calm   1.0 mph 85% 0.00 in 0 W/m2
02:52 22.9 °F 19.1 °F 29.98 in Calm     85% 0.00 in 0 W/m2
02:58 22.9 °F 19.1 °F 29.98 in Calm     85% 0.00 in 0 W/m2
03:04 22.9 °F 19.1 °F 29.97 in Calm   1.0 mph 85% 0.00 in 0 W/m2
03:10 22.9 °F 19.1 °F 29.97 in NNW 1.0 mph 1.0 mph 85% 0.00 in 0 W/m2
03:16 22.8 °F 19.0 °F 29.97 in NNW 1.0 mph 2.0 mph 85% 0.00 in 0 W/m2
03:22 22.9 °F 19.1 °F 29.97 in Calm   1.0 mph 85% 0.00 in 0 W/m2
03:28 22.9 °F 19.1 °F 29.97 in Calm   1.0 mph 85% 0.00 in 0 W/m2
03:34 22.9 °F 19.1 °F 29.97 in Calm   1.0 mph 85% 0.00 in 0 W/m2
03:40 22.9 °F 19.1 °F 29.97 in Calm   2.0 mph 85% 0.00 in 0 W/m2
03:46 22.9 °F 19.1 °F 29.97 in NNW 1.0 mph 2.0 mph 85% 0.00 in 0 W/m2
03:52 22.8 °F 19.0 °F 29.98 in NNW 1.0 mph 2.0 mph 85% 0.00 in 0 W/m2
03:58 22.8 °F 19.0 °F 29.98 in NNW 1.0 mph 2.0 mph 85% 0.00 in 0 W/m2
04:04 22.7 °F 18.9 °F 29.98 in NNW 1.0 mph 1.0 mph 85% 0.00 in 0 W/m2
04:10 22.6 °F 19.0 °F 29.98 in Calm     86% 0.00 in 0 W/m2
04:16 22.6 °F 19.0 °F 29.98 in NNW 1.0 mph 1.0 mph 86% 0.00 in 0 W/m2
04:22 22.5 °F 18.9 °F 29.98 in NNW 1.0 mph 1.0 mph 86% 0.00 in 0 W/m2
04:28 22.4 °F 18.8 °F 29.98 in NNW 1.0 mph 3.0 mph 86% 0.00 in 0 W/m2
04:34 22.3 °F 18.7 °F 29.98 in WNW 2.0 mph 2.0 mph 86% 0.00 in 0 W/m2
04:40 22.3 °F 18.7 °F 29.98 in WNW 2.0 mph 2.0 mph 86% 0.00 in 0 W/m2
04:46 22.3 °F 18.7 °F 29.98 in WNW 1.0 mph 3.0 mph 86% 0.00 in 0 W/m2
04:52 22.2 °F 18.7 °F 29.99 in WNW 2.0 mph 4.0 mph 86% 0.00 in 0 W/m2
04:58 22.2 °F 18.7 °F 29.99 in WNW 2.0 mph 4.0 mph 86% 0.00 in 0 W/m2
05:04 22.2 °F 18.7 °F 29.99 in WNW 2.0 mph 3.0 mph 86% 0.00 in 0 W/m2
05:10 22.1 °F 18.6 °F 30.00 in WNW 2.0 mph 2.0 mph 86% 0.00 in 0 W/m2
05:16 22.0 °F 18.5 °F 30.00 in WNW 2.0 mph 2.0 mph 86% 0.00 in 0 W/m2
05:22 21.8 °F 18.3 °F 30.00 in WNW 2.0 mph 3.0 mph 86% 0.00 in 0 W/m2
05:28 21.6 °F 18.1 °F 30.00 in WNW 2.0 mph 3.0 mph 86% 0.00 in 0 W/m2
05:34 21.5 °F 18.0 °F 30.00 in WNW 2.0 mph 3.0 mph 86% 0.00 in 0 W/m2
05:40 21.4 °F 18.1 °F 30.00 in WNW 2.0 mph 2.0 mph 87% 0.00 in 0 W/m2
05:46 21.4 °F 18.1 °F 30.01 in WNW 1.0 mph 2.0 mph 87% 0.00 in 0 W/m2
05:52 21.4 °F 18.1 °F 30.01 in WNW 1.0 mph 2.0 mph 87% 0.00 in 0 W/m2
05:58 21.4 °F 18.1 °F 30.01 in West 1.0 mph 3.0 mph 87% 0.00 in 0 W/m2
06:04 21.3 °F 18.0 °F 30.01 in West 1.0 mph 1.0 mph 87% 0.00 in 0 W/m2
06:10 21.1 °F 17.8 °F 30.01 in West 1.0 mph 1.0 mph 87% 0.00 in 0 W/m2
06:16 20.9 °F 17.6 °F 30.01 in West 1.0 mph 2.0 mph 87% 0.00 in 0 W/m2
06:22 20.9 °F 17.9 °F 30.02 in West 1.0 mph 1.0 mph 88% 0.00 in 0 W/m2
06:28 20.8 °F 17.8 °F 30.02 in West 1.0 mph 3.0 mph 88% 0.00 in 0 W/m2
06:34 20.7 °F 17.7 °F 30.02 in WNW 2.0 mph 3.0 mph 88% 0.00 in 0 W/m2
06:40 20.7 °F 17.7 °F 30.03 in WNW 2.0 mph 2.0 mph 88% 0.00 in 0 W/m2
06:46 20.6 °F 17.6 °F 30.03 in WNW 1.0 mph 3.0 mph 88% 0.00 in 0 W/m2
06:52 20.6 °F 17.6 °F 30.03 in WNW 2.0 mph 2.0 mph 88% 0.00 in 0 W/m2
06:58 20.5 °F 17.5 °F 30.03 in West 2.0 mph 5.0 mph 88% 0.00 in 0 W/m2
07:04 20.2 °F 17.2 °F 30.03 in WNW 3.0 mph 6.0 mph 88% 0.00 in 0 W/m2
07:10 20.0 °F 17.0 °F 30.03 in WNW 3.0 mph 4.0 mph 88% 0.00 in 0 W/m2
07:16 19.9 °F 17.2 °F 30.04 in WNW 4.0 mph 6.0 mph 89% 0.00 in 0 W/m2
07:22 19.9 °F 17.2 °F 30.04 in WNW 3.0 mph 4.0 mph 89% 0.00 in 0 W/m2
07:28 19.9 °F 17.2 °F 30.04 in WNW 2.0 mph 4.0 mph 89% 0.00 in 0 W/m2
07:34 20.0 °F 17.3 °F 30.05 in WNW 2.0 mph 5.0 mph 89% 0.00 in 0 W/m2
07:40 19.8 °F 17.1 °F 30.05 in NW 3.0 mph 3.0 mph 89% 0.00 in 5 W/m2
07:46 19.7 °F 17.0 °F 30.05 in WNW 3.0 mph 3.0 mph 89% 0.00 in 9 W/m2
07:52 19.6 °F 16.9 °F 30.05 in WNW 3.0 mph 6.0 mph 89% 0.00 in 11 W/m2
07:58 19.4 °F 16.7 °F 30.06 in WNW 3.0 mph 6.0 mph 89% 0.00 in 14 W/m2
08:04 19.3 °F 16.6 °F 30.06 in NW 3.0 mph 4.0 mph 89% 0.00 in 21 W/m2
08:10 19.3 °F 16.6 °F 30.06 in WNW 3.0 mph 4.0 mph 89% 0.00 in 32 W/m2
08:16 19.3 °F 16.6 °F 30.06 in NW 2.0 mph 4.0 mph 89% 0.00 in 35 W/m2
08:22 19.2 °F 16.5 °F 30.07 in WNW 3.0 mph 4.0 mph 89% 0.00 in 39 W/m2
08:28 19.3 °F 16.6 °F 30.07 in NW 3.0 mph 5.0 mph 89% 0.00 in 37 W/m2
08:34 19.0 °F 16.3 °F 30.07 in WNW 3.0 mph 5.0 mph 89% 0.00 in 44 W/m2
08:40 18.6 °F 15.6 °F 30.08 in WNW 6.0 mph 6.0 mph 88% 0.00 in 53 W/m2
08:46 18.5 °F 15.5 °F 30.08 in NW 6.0 mph 8.0 mph 88% 0.00 in 53 W/m2
08:52 18.6 °F 15.4 °F 30.08 in WNW 5.0 mph 6.0 mph 87% 0.00 in 56 W/m2
08:58 18.7 °F 15.5 °F 30.08 in NNW 4.0 mph 6.0 mph 87% 0.00 in 53 W/m2
09:04 18.7 °F 15.5 °F 30.08 in NW 3.0 mph 7.0 mph 87% 0.00 in 54 W/m2
09:10 18.7 °F 15.5 °F 30.09 in WNW 4.0 mph 8.0 mph 87% 0.00 in 60 W/m2
09:16 18.8 °F 15.6 °F 30.09 in WNW 4.0 mph 8.0 mph 87% 0.00 in 67 W/m2
09:22 18.8 °F 15.6 °F 30.09 in WNW 4.0 mph 6.0 mph 87% 0.00 in 70 W/m2
09:28 18.8 °F 15.6 °F 30.09 in NW 4.0 mph 7.0 mph 87% 0.00 in 70 W/m2
09:34 18.8 °F 15.6 °F 30.09 in WNW 4.0 mph 4.0 mph 87% 0.00 in 70 W/m2
09:40 18.8 °F 15.3 °F 30.10 in WNW 4.0 mph 7.0 mph 86% 0.00 in 88 W/m2
09:46 18.8 °F 15.3 °F 30.10 in WNW 4.0 mph 9.0 mph 86% 0.00 in 100 W/m2
09:52 18.8 °F 15.3 °F 30.11 in WNW 4.0 mph 4.0 mph 86% 0.00 in 113 W/m2
09:58 18.8 °F 15.0 °F 30.11 in WNW 4.0 mph 7.0 mph 85% 0.00 in 116 W/m2
10:04 18.8 °F 15.0 °F 30.11 in NW 5.0 mph 5.0 mph 85% 0.00 in 121 W/m2
10:10 18.9 °F 14.9 °F 30.11 in WNW 4.0 mph 7.0 mph 84% 0.00 in 113 W/m2
10:16 18.6 °F 14.3 °F 30.11 in WNW 5.0 mph 7.0 mph 83% 0.00 in 104 W/m2
10:22 18.8 °F 14.8 °F 30.11 in WNW 3.0 mph 4.0 mph 84% 0.00 in 109 W/m2
10:28 18.7 °F 14.7 °F 30.12 in NW 3.0 mph 7.0 mph 84% 0.00 in 120 W/m2
10:34 18.5 °F 14.5 °F 30.11 in NW 4.0 mph 4.0 mph 84% 0.00 in 123 W/m2
10:40 18.6 °F 14.6 °F 30.12 in NW 4.0 mph 4.0 mph 84% 0.00 in 127 W/m2
10:46 18.7 °F 14.7 °F 30.12 in NW 3.0 mph 4.0 mph 84% 0.00 in 114 W/m2
10:52 18.7 °F 14.4 °F 30.12 in NW 3.0 mph 5.0 mph 83% 0.00 in 120 W/m2
10:58 18.7 °F 14.4 °F 30.12 in WNW 4.0 mph 7.0 mph 83% 0.00 in 160 W/m2
11:04 18.7 °F 14.4 °F 30.12 in NW 4.0 mph 7.0 mph 83% 0.00 in 169 W/m2
11:10 18.7 °F 14.4 °F 30.12 in NNW 4.0 mph 4.0 mph 83% 0.00 in 171 W/m2
11:16 18.8 °F 14.5 °F 30.12 in NW 4.0 mph 4.0 mph 83% 0.00 in 174 W/m2
11:22 18.9 °F 14.6 °F 30.12 in NW 4.0 mph 7.0 mph 83% 0.00 in 179 W/m2
11:28 18.8 °F 14.2 °F 30.12 in NNW 5.0 mph 7.0 mph 82% 0.00 in 139 W/m2
11:34 18.7 °F 14.4 °F 30.12 in NNW 5.0 mph 7.0 mph 83% 0.00 in 156 W/m2
11:40 18.6 °F 14.3 °F 30.12 in NNW 4.0 mph 4.0 mph 83% 0.00 in 113 W/m2
11:46 18.4 °F 14.1 °F 30.12 in NW 4.0 mph 4.0 mph 83% 0.00 in 192 W/m2
11:52 18.6 °F 14.6 °F 30.12 in WNW 4.0 mph 4.0 mph 84% 0.00 in 262 W/m2
11:58 18.6 °F 14.3 °F 30.12 in NW 4.0 mph 6.0 mph 83% 0.00 in 225 W/m2
12:04 18.5 °F 14.2 °F 30.11 in WNW 5.0 mph 5.0 mph 83% 0.00 in 274 W/m2
12:10 18.6 °F 14.0 °F 30.11 in WNW 5.0 mph 5.0 mph 82% 0.00 in 260 W/m2
12:16 18.5 °F 13.9 °F 30.11 in NW 5.0 mph 5.0 mph 82% 0.00 in 237 W/m2
12:22 18.6 °F 14.0 °F 30.11 in WNW 4.0 mph 7.0 mph 82% 0.00 in 229 W/m2
12:28 18.6 °F 13.7 °F 30.11 in WNW 4.0 mph 7.0 mph 81% 0.00 in 318 W/m2
12:34 18.7 °F 13.8 °F 30.11 in WNW 4.0 mph 5.0 mph 81% 0.00 in 255 W/m2
12:40 18.6 °F 13.5 °F 30.11 in WNW 4.0 mph 10.0 mph 80% 0.00 in 251 W/m2
12:46 18.5 °F 13.4 °F 30.11 in NW 5.0 mph 10.0 mph 80% 0.00 in 257 W/m2
12:52 18.6 °F 13.2 °F 30.10 in NW 5.0 mph 5.0 mph 79% 0.00 in 362 W/m2
12:58 18.9 °F 13.2 °F 30.11 in WNW 4.0 mph 6.0 mph 78% 0.00 in 230 W/m2
13:04 18.9 °F 13.2 °F 30.11 in North 4.0 mph 9.0 mph 78% 0.00 in 214 W/m2
13:10 18.4 °F 12.7 °F 30.10 in WNW 5.0 mph 5.0 mph 78% 0.00 in 250 W/m2
13:16 18.4 °F 13.0 °F 30.11 in WNW 5.0 mph 7.0 mph 79% 0.00 in 262 W/m2
13:22 19.0 °F 13.3 °F 30.10 in NW 4.0 mph 8.0 mph 78% 0.00 in 439 W/m2
13:28 20.0 °F 13.3 °F 30.10 in WNW 4.0 mph 8.0 mph 75% 0.00 in 508 W/m2
13:34 19.5 °F 13.2 °F 30.11 in WNW 4.0 mph 8.0 mph 76% 0.00 in 139 W/m2
13:40 19.0 °F 13.3 °F 30.11 in NW 4.0 mph 7.0 mph 78% 0.00 in 141 W/m2
13:46 18.4 °F 13.0 °F 30.11 in NW 4.0 mph 7.0 mph 79% 0.00 in 165 W/m2
13:52 18.2 °F 13.1 °F 30.11 in NW 5.0 mph 7.0 mph 80% 0.00 in 199 W/m2
13:58 18.4 °F 13.3 °F 30.11 in NNW 4.0 mph 7.0 mph 80% 0.00 in 211 W/m2
14:04 18.6 °F 13.5 °F 30.11 in WNW 4.0 mph 6.0 mph 80% 0.00 in 181 W/m2
14:10 18.6 °F 13.7 °F 30.11 in NW 4.0 mph 4.0 mph 81% 0.00 in 221 W/m2
14:16 18.8 °F 13.7 °F 30.11 in NW 4.0 mph 6.0 mph 80% 0.00 in 213 W/m2
14:22 19.1 °F 13.9 °F 30.11 in WNW 4.0 mph 5.0 mph 80% 0.00 in 255 W/m2
14:28 19.2 °F 14.0 °F 30.11 in WNW 4.0 mph 5.0 mph 80% 0.00 in 179 W/m2
14:34 19.1 °F 13.9 °F 30.11 in NNW 4.0 mph 5.0 mph 80% 0.00 in 146 W/m2
14:40 19.3 °F 13.9 °F 30.12 in NW 4.0 mph 7.0 mph 79% 0.00 in 186 W/m2
14:46 19.6 °F 14.4 °F 30.12 in WNW 4.0 mph 7.0 mph 80% 0.00 in 230 W/m2
14:52 19.3 °F 13.9 °F 30.12 in NNW 4.0 mph 7.0 mph 79% 0.00 in 169 W/m2
14:58 19.1 °F 13.7 °F 30.12 in NW 4.0 mph 7.0 mph 79% 0.00 in 118 W/m2
15:06 19.1 °F 14.2 °F 30.13 in NW 4.0 mph 6.0 mph 81% 0.00 in 179 W/m2
15:12 19.4 °F 14.5 °F 30.13 in NW 4.0 mph 5.0 mph 81% 0.00 in 302 W/m2
15:18 19.6 °F 15.0 °F 30.13 in NNW 3.0 mph 9.0 mph 82% 0.00 in 229 W/m2
15:24 19.4 °F 14.5 °F 30.14 in NNW 4.0 mph 8.0 mph 81% 0.00 in 244 W/m2
15:30 19.5 °F 14.6 °F 30.14 in NNW 5.0 mph 5.0 mph 81% 0.00 in 234 W/m2
15:36 19.6 °F 14.7 °F 30.14 in WNW 4.0 mph 5.0 mph 81% 0.00 in 207 W/m2
15:42 19.5 °F 14.6 °F 30.14 in WNW 4.0 mph 4.0 mph 81% 0.00 in 111 W/m2
15:48 19.2 °F 14.0 °F 30.15 in WNW 3.0 mph 4.0 mph 80% 0.00 in 95 W/m2
15:54 19.1 °F 14.2 °F 30.15 in WNW 3.0 mph 3.0 mph 81% 0.00 in 76 W/m2
16:00 19.0 °F 14.1 °F 30.15 in WNW 3.0 mph 3.0 mph 81% 0.00 in 53 W/m2
16:06 18.8 °F 13.9 °F 30.16 in NW 3.0 mph 3.0 mph 81% 0.00 in 49 W/m2
16:12 18.8 °F 14.2 °F 30.16 in WNW 2.0 mph 5.0 mph 82% 0.00 in 40 W/m2
16:18 18.6 °F 14.0 °F 30.16 in WNW 3.0 mph 5.0 mph 82% 0.00 in 30 W/m2
16:24 18.6 °F 14.3 °F 30.16 in WNW 3.0 mph 3.0 mph 83% 0.00 in 26 W/m2
16:30 18.5 °F 14.5 °F 30.16 in North 2.0 mph 4.0 mph 84% 0.00 in 23 W/m2
16:36 18.5 °F 14.5 °F 30.17 in NW 2.0 mph 5.0 mph 84% 0.00 in 30 W/m2
16:42 18.4 °F 14.6 °F 30.17 in NW 3.0 mph 4.0 mph 85% 0.00 in 21 W/m2
16:48 18.4 °F 14.6 °F 30.17 in NW 3.0 mph 4.0 mph 85% 0.00 in 19 W/m2
16:54 18.5 °F 14.7 °F 30.17 in NW 2.0 mph 3.0 mph 85% 0.00 in 11 W/m2
17:00 18.5 °F 14.7 °F 30.17 in NNW 2.0 mph 3.0 mph 85% 0.00 in 5 W/m2
17:06 18.5 °F 14.7 °F 30.18 in NW 3.0 mph 3.0 mph 85% 0.00 in 0 W/m2
17:12 18.6 °F 15.1 °F 30.18 in NW 2.0 mph 4.0 mph 86% 0.00 in 0 W/m2
17:18 18.6 °F 15.1 °F 30.19 in NW 2.0 mph 4.0 mph 86% 0.00 in 0 W/m2
17:24 18.7 °F 15.2 °F 30.19 in NW 1.0 mph 2.0 mph 86% 0.00 in 0 W/m2
17:30 18.8 °F 15.3 °F 30.19 in NW 1.0 mph 3.0 mph 86% 0.00 in 0 W/m2
17:36 18.9 °F 15.7 °F 30.19 in NW 1.0 mph 3.0 mph 87% 0.00 in 0 W/m2
17:42 18.9 °F 15.7 °F 30.20 in NW 1.0 mph 1.0 mph 87% 0.00 in 0 W/m2
17:48 19.0 °F 15.8 °F 30.20 in NW 1.0 mph 1.0 mph 87% 0.00 in 0 W/m2
17:54 19.0 °F 15.8 °F 30.21 in NW 1.0 mph 1.0 mph 87% 0.00 in 0 W/m2
18:00 19.1 °F 15.9 °F 30.21 in NW 1.0 mph 1.0 mph 87% 0.00 in 0 W/m2
18:06 19.2 °F 16.0 °F 30.21 in NW 2.0 mph 3.0 mph 87% 0.00 in 0 W/m2
18:12 19.2 °F 16.2 °F 30.21 in NW 2.0 mph 4.0 mph 88% 0.00 in 0 W/m2
18:18 19.3 °F 16.3 °F 30.21 in WNW 3.0 mph 4.0 mph 88% 0.00 in 0 W/m2
18:24 19.0 °F 15.8 °F 30.22 in WNW 4.0 mph 4.0 mph 87% 0.00 in 0 W/m2
18:30 18.4 °F 15.2 °F 30.22 in WNW 5.0 mph 5.0 mph 87% 0.00 in 0 W/m2
18:36 18.3 °F 15.1 °F 30.22 in WSW 4.0 mph 6.0 mph 87% 0.00 in 0 W/m2
18:42 17.8 °F 14.6 °F 30.22 in West 4.0 mph 4.0 mph 87% 0.00 in 0 W/m2
18:48 17.2 °F 14.0 °F 30.23 in WNW 4.0 mph 7.0 mph 87% 0.00 in 0 W/m2
18:54 17.0 °F 13.8 °F 30.23 in West 3.0 mph 4.0 mph 87% 0.00 in 0 W/m2
19:00 16.7 °F 13.5 °F 30.22 in West 3.0 mph 3.0 mph 87% 0.00 in 0 W/m2
19:06 16.5 °F 13.3 °F 30.23 in WNW 3.0 mph 6.0 mph 87% 0.00 in 0 W/m2
19:12 16.4 °F 13.2 °F 30.23 in West 4.0 mph 4.0 mph 87% 0.00 in 0 W/m2
19:18 16.4 °F 13.2 °F 30.23 in WSW 3.0 mph 4.0 mph 87% 0.00 in 0 W/m2
19:24 16.3 °F 13.1 °F 30.23 in WSW 3.0 mph 6.0 mph 87% 0.00 in 0 W/m2
19:30 16.3 °F 13.1 °F 30.24 in WNW 4.0 mph 4.0 mph 87% 0.00 in 0 W/m2
19:36 16.3 °F 12.8 °F 30.24 in West 3.0 mph 9.0 mph 86% 0.00 in 0 W/m2
19:42 16.3 °F 12.8 °F 30.24 in WNW 4.0 mph 5.0 mph 86% 0.00 in 0 W/m2
19:48 16.3 °F 12.8 °F 30.24 in West 4.0 mph 5.0 mph 86% 0.00 in 0 W/m2
19:54 16.4 °F 12.9 °F 30.24 in WSW 3.0 mph 5.0 mph 86% 0.00 in 0 W/m2
20:00 16.4 °F 12.7 °F 30.24 in West 3.0 mph 3.0 mph 85% 0.00 in 0 W/m2
20:06 16.3 °F 12.6 °F 30.24 in WSW 4.0 mph 5.0 mph 85% 0.00 in 0 W/m2
20:12 16.1 °F 12.4 °F 30.24 in SW 4.0 mph 8.0 mph 85% 0.00 in 0 W/m2
20:18 16.2 °F 12.5 °F 30.24 in WSW 5.0 mph 8.0 mph 85% 0.00 in 0 W/m2
20:26 16.1 °F 12.1 °F 30.24 in West 4.0 mph 6.0 mph 84% 0.00 in 0 W/m2
20:32 16.0 °F 12.0 °F 30.24 in WSW 4.0 mph 4.0 mph 84% 0.00 in 0 W/m2
20:38 15.9 °F 11.9 °F 30.24 in WSW 4.0 mph 6.0 mph 84% 0.00 in 0 W/m2
20:44 15.9 °F 12.2 °F 30.24 in West 5.0 mph 7.0 mph 85% 0.00 in 0 W/m2
20:50 15.9 °F 12.2 °F 30.24 in WNW 5.0 mph 5.0 mph 85% 0.00 in 0 W/m2
20:56 15.9 °F 12.2 °F 30.24 in West 4.0 mph 5.0 mph 85% 0.00 in 0 W/m2
21:02 15.8 °F 12.1 °F 30.25 in WSW 3.0 mph 6.0 mph 85% 0.00 in 0 W/m2
21:08 15.8 °F 12.1 °F 30.24 in WSW 3.0 mph 6.0 mph 85% 0.00 in 0 W/m2
21:14 15.8 °F 12.1 °F 30.24 in West 3.0 mph 5.0 mph 85% 0.00 in 0 W/m2
21:20 15.8 °F 12.1 °F 30.24 in WSW 4.0 mph 4.0 mph 85% 0.00 in 0 W/m2
21:26 15.8 °F 12.1 °F 30.24 in West 4.0 mph 6.0 mph 85% 0.00 in 0 W/m2
21:32 15.8 °F 12.1 °F 30.24 in WNW 3.0 mph 3.0 mph 85% 0.00 in 0 W/m2
21:38 15.7 °F 12.0 °F 30.24 in WSW 2.0 mph 4.0 mph 85% 0.00 in 0 W/m2
21:44 15.6 °F 11.9 °F 30.24 in SW 2.0 mph 4.0 mph 85% 0.00 in 0 W/m2
21:50 15.6 °F 11.9 °F 30.24 in WSW 3.0 mph 3.0 mph 85% 0.00 in 0 W/m2
21:56 15.6 °F 11.9 °F 30.24 in WNW 3.0 mph 3.0 mph 85% 0.00 in 0 W/m2
22:02 15.6 °F 11.9 °F 30.25 in West 3.0 mph 5.0 mph 85% 0.00 in 0 W/m2
22:08 15.5 °F 11.8 °F 30.25 in WSW 3.0 mph 7.0 mph 85% 0.00 in 0 W/m2
22:14 15.5 °F 11.8 °F 30.25 in SW 4.0 mph 6.0 mph 85% 0.00 in 0 W/m2
22:20 15.5 °F 11.8 °F 30.25 in WNW 3.0 mph 3.0 mph 85% 0.00 in 0 W/m2
22:26 15.4 °F 12.0 °F 30.25 in WSW 3.0 mph 3.0 mph 86% 0.00 in 0 W/m2
22:32 15.4 °F 12.0 °F 30.25 in West 2.0 mph 3.0 mph 86% 0.00 in 0 W/m2
22:38 15.4 °F 12.0 °F 30.24 in WSW 2.0 mph 6.0 mph 86% 0.00 in 0 W/m2
22:44 15.4 °F 12.0 °F 30.24 in SW 3.0 mph 5.0 mph 86% 0.00 in 0 W/m2
22:50 15.4 °F 12.0 °F 30.24 in SW 3.0 mph 3.0 mph 86% 0.00 in 0 W/m2
22:56 15.3 °F 11.9 °F 30.24 in SW 2.0 mph 3.0 mph 86% 0.00 in 0 W/m2
23:02 15.3 °F 11.9 °F 30.24 in West 1.0 mph 3.0 mph 86% 0.00 in 0 W/m2
23:08 15.3 °F 11.9 °F 30.24 in WSW 2.0 mph 3.0 mph 86% 0.00 in 0 W/m2
23:14 15.2 °F 11.8 °F 30.23 in SW 2.0 mph 6.0 mph 86% 0.00 in 0 W/m2
23:20 15.1 °F 11.7 °F 30.23 in West 3.0 mph 3.0 mph 86% 0.00 in 0 W/m2
23:26 14.9 °F 11.5 °F 30.23 in WSW 2.0 mph 3.0 mph 86% 0.00 in 0 W/m2
23:32 14.8 °F 11.4 °F 30.23 in SW 3.0 mph 4.0 mph 86% 0.00 in 0 W/m2
23:38 14.7 °F 11.3 °F 30.23 in SW 3.0 mph 5.0 mph 86% 0.00 in 0 W/m2
23:44 14.7 °F 11.3 °F 30.23 in SW 3.0 mph 4.0 mph 86% 0.00 in 0 W/m2
23:50 14.6 °F 11.2 °F 30.23 in West 2.0 mph 2.0 mph 86% 0.00 in 0 W/m2
23:56 14.5 °F 11.1 °F 30.22 in WSW 2.0 mph 3.0 mph 86% 0.00 in 0 W/m2
Country Meadow, Clay, NY, USA
Compliments of Weather Underground - 2 mb